createdAt,value
2019-01-27T00:04:54.586Z,98765.81
2019-01-27T00:09:56.631Z,98754.05
2019-01-27T00:14:58.655Z,98747.27
2019-01-27T00:20:00.664Z,98741.77
2019-01-27T00:30:32.544Z,98702.36
2019-01-27T00:35:34.552Z,98691.45
2019-01-27T00:40:36.538Z,98678.41
2019-01-27T00:45:38.540Z,98665.86
2019-01-27T00:50:40.550Z,98649.55
2019-01-27T00:55:42.866Z,98638.94
2019-01-27T01:00:44.831Z,98632.05
2019-01-27T01:05:46.865Z,98617.45
2019-01-27T01:10:48.905Z,98613.72
2019-01-27T01:15:51.202Z,98592.37
2019-01-27T01:20:53.344Z,98579.84
2019-01-27T01:25:55.358Z,98577.14
2019-01-27T01:30:57.367Z,98566.30
2019-01-27T01:35:59.439Z,98551.06
2019-01-27T01:41:01.465Z,98536.78
2019-01-27T01:46:44.271Z,98529.05
2019-01-27T01:51:46.298Z,98520.60
2019-01-27T01:56:48.339Z,98505.27
2019-01-27T02:01:50.344Z,98489.92
2019-01-27T02:06:52.674Z,98479.66
2019-01-27T02:11:54.677Z,98469.48
2019-01-27T02:16:56.699Z,98455.17
2019-01-27T02:21:58.746Z,98436.73
2019-01-27T02:27:00.781Z,98413.86
2019-01-27T02:37:32.756Z,98397.42
2019-01-27T02:42:34.712Z,98383.95
2019-01-27T02:47:36.686Z,98374.28
2019-01-27T02:52:38.927Z,98359.95
2019-01-27T02:57:41.549Z,98354.11
2019-01-27T03:02:43.538Z,98348.84
2019-01-27T03:07:45.623Z,98339.07
2019-01-27T03:12:47.613Z,98333.13
2019-01-27T03:17:49.579Z,98324.28
2019-01-27T03:22:51.848Z,98303.78
2019-01-27T03:27:54.133Z,98302.36
2019-01-27T03:32:56.122Z,98282.05
2019-01-27T03:37:58.106Z,98276.09
2019-01-27T03:43:00.093Z,98268.47
2019-01-27T03:48:02.125Z,98264.70
2019-01-27T03:53:04.214Z,98254.93
2019-01-27T03:58:06.232Z,98243.28
2019-01-27T04:03:08.314Z,98234.69
2019-01-27T04:08:10.373Z,98225.76
2019-01-27T04:13:12.771Z,98216.72
2019-01-27T04:18:14.809Z,98207.86
2019-01-27T04:23:16.911Z,98196.77
2019-01-27T04:28:18.924Z,98191.80
2019-01-27T04:33:20.951Z,98186.05
2019-01-27T04:38:23.251Z,98169.03
2019-01-27T04:43:25.387Z,98165.81
2019-01-27T04:48:27.452Z,98156.59
2019-01-27T04:53:29.722Z,98149.82
2019-01-27T04:58:31.797Z,98153.11
2019-01-27T05:03:53.438Z,98152.49
2019-01-27T05:08:55.524Z,98141.84
2019-01-27T05:13:57.547Z,98139.69
2019-01-27T05:18:59.599Z,98125.93
2019-01-27T05:24:01.671Z,98129.62
2019-01-27T05:29:03.640Z,98126.22
2019-01-27T05:34:06.039Z,98114.25
2019-01-27T05:39:08.365Z,98110.66
2019-01-27T05:44:10.389Z,98097.23
2019-01-27T05:49:12.398Z,98086.51
2019-01-27T05:54:14.397Z,98079.22
2019-01-27T05:59:16.362Z,98059.74
2019-01-27T06:04:18.356Z,98056.52
2019-01-27T06:09:20.414Z,98043.34
2019-01-27T06:14:22.422Z,98042.67
2019-01-27T06:19:24.455Z,98047.58
2019-01-27T06:24:26.456Z,98048.78
2019-01-27T06:29:28.533Z,98034.47
2019-01-27T06:34:30.557Z,98024.59
2019-01-27T06:39:32.953Z,98017.41
2019-01-27T06:44:34.949Z,98018.28
2019-01-27T06:49:37.030Z,98017.53
2019-01-27T06:54:39.007Z,98007.52
2019-01-27T07:00:00.603Z,98006.00
2019-01-27T07:05:24.155Z,98000.73
2019-01-27T07:10:43.915Z,97997.63
2019-01-27T07:15:57.279Z,97996.08
2019-01-27T07:21:12.175Z,97983.13
2019-01-27T07:26:26.066Z,97979.86
2019-01-27T07:32:00.619Z,97963.81
2019-01-27T07:37:20.566Z,97967.20
2019-01-27T07:42:57.006Z,97958.19
2019-01-27T07:48:18.661Z,97957.11
2019-01-27T07:53:43.062Z,97948.16
2019-01-27T07:58:58.266Z,97949.88
2019-01-27T08:04:18.276Z,97948.05
2019-01-27T08:09:29.729Z,97943.48
2019-01-27T08:14:56.527Z,97936.73
2019-01-27T08:20:36.121Z,97936.69
2019-01-27T08:25:46.205Z,97937.48
2019-01-27T08:31:02.735Z,97926.97
2019-01-27T08:36:20.853Z,97916.91
2019-01-27T08:41:48.885Z,97907.91
2019-01-27T08:46:54.217Z,97911.09
2019-01-27T08:51:56.211Z,97899.58
2019-01-27T08:56:58.433Z,97897.09
2019-01-27T09:02:18.864Z,97890.10
2019-01-27T09:07:49.247Z,97890.48
2019-01-27T09:13:12.042Z,97885.11
2019-01-27T09:18:45.596Z,97876.85
2019-01-27T09:23:55.980Z,97879.76
2019-01-27T09:29:03.363Z,97870.18
2019-01-27T09:34:24.669Z,97869.70
2019-01-27T09:39:54.925Z,97859.50
2019-01-27T09:45:18.813Z,97866.67
2019-01-27T09:50:46.375Z,97866.94
2019-01-27T09:56:07.996Z,97860.48
2019-01-27T10:01:27.871Z,97859.39
2019-01-27T10:06:52.240Z,97854.25
2019-01-27T10:12:05.417Z,97860.09
2019-01-27T10:17:32.903Z,97865.80
2019-01-27T10:22:53.202Z,97861.85
2019-01-27T10:28:21.798Z,97864.63
2019-01-27T10:33:42.051Z,97854.68
2019-01-27T10:39:18.868Z,97841.70
2019-01-27T10:44:47.655Z,97836.36
2019-01-27T10:50:18.565Z,97829.41
2019-01-27T10:55:44.138Z,97810.30
2019-01-27T11:01:05.871Z,97806.95
2019-01-27T11:06:46.870Z,97809.10
2019-01-27T11:12:08.646Z,97798.23
2019-01-27T11:17:19.050Z,97784.98
2019-01-27T11:22:43.777Z,97776.91
2019-01-27T11:28:14.471Z,97760.98
2019-01-27T11:33:37.930Z,97756.06
2019-01-27T11:39:15.314Z,97745.63
2019-01-27T11:44:48.599Z,97716.11
2019-01-27T11:50:10.519Z,97715.39
2019-01-27T11:55:12.664Z,97714.09
2019-01-27T12:00:17.215Z,97707.85
2019-01-27T12:05:19.243Z,97698.97
2019-01-27T12:10:21.312Z,97695.72
2019-01-27T12:15:23.429Z,97686.95
2019-01-27T12:20:25.463Z,97680.61
2019-01-27T12:25:27.543Z,97675.33
2019-01-27T12:30:29.585Z,97669.42
2019-01-27T12:35:31.714Z,97660.30
2019-01-27T12:40:33.913Z,97655.50
2019-01-27T12:45:35.982Z,97656.58
2019-01-27T12:50:38.055Z,97671.96
2019-01-27T12:55:40.356Z,97675.91
2019-01-27T13:00:51.498Z,97663.90
2019-01-27T13:05:53.548Z,97662.33
2019-01-27T13:10:55.600Z,97658.01
2019-01-27T13:15:57.696Z,97655.14
2019-01-27T13:20:59.792Z,97650.93
2019-01-27T13:26:01.811Z,97654.67
2019-01-27T13:31:04.160Z,97652.25
2019-01-27T13:36:06.187Z,97642.66
2019-01-27T13:41:08.194Z,97639.55
2019-01-27T13:46:10.198Z,97639.28
2019-01-27T13:51:12.236Z,97633.88
2019-01-27T13:56:14.252Z,97626.70
2019-01-27T14:01:16.400Z,97623.22
2019-01-27T14:06:18.486Z,97615.41
2019-01-27T14:11:20.579Z,97608.83
2019-01-27T14:16:22.627Z,97602.34
2019-01-27T14:21:25.559Z,97601.00
2019-01-27T14:26:27.564Z,97600.30
2019-01-27T14:31:29.614Z,97598.02
2019-01-27T14:36:31.707Z,97607.37
2019-01-27T14:41:33.734Z,97606.41
2019-01-27T14:46:35.869Z,97602.22
2019-01-27T14:51:37.894Z,97602.22
2019-01-27T14:56:39.913Z,97597.52
2019-01-27T15:01:41.982Z,97600.19
2019-01-27T15:06:44.094Z,97592.61
2019-01-27T15:11:46.103Z,97593.10
2019-01-27T15:16:48.203Z,97592.73
2019-01-27T15:21:50.171Z,97588.52
2019-01-27T15:26:52.233Z,97582.65
2019-01-27T15:31:54.293Z,97581.55
2019-01-27T15:36:56.339Z,97580.83
2019-01-27T15:41:58.325Z,97578.53
2019-01-27T15:47:00.556Z,97574.58
2019-01-27T15:52:02.711Z,97570.00
2019-01-27T15:57:04.773Z,97563.51
2019-01-27T16:02:06.811Z,97563.99
2019-01-27T16:07:08.803Z,97567.48
2019-01-27T16:12:10.845Z,97567.38
2019-01-27T16:17:12.831Z,97567.28
2019-01-27T16:22:14.874Z,97566.59
2019-01-27T16:27:16.878Z,97564.19
2019-01-27T16:32:28.183Z,97566.12
2019-01-27T16:37:30.327Z,97563.94
2019-01-27T16:42:32.683Z,97561.30
2019-01-27T16:47:34.729Z,97561.91
2019-01-27T16:52:36.672Z,97558.78
2019-01-27T16:57:38.707Z,97558.53
2019-01-27T17:02:41.051Z,97568.61
2019-01-27T17:07:43.208Z,97552.91
2019-01-27T17:12:45.238Z,97548.69
2019-01-27T17:17:47.267Z,97554.80
2019-01-27T17:22:49.434Z,97549.42
2019-01-27T17:27:51.737Z,97567.18
2019-01-27T17:32:53.888Z,97561.48
2019-01-27T17:37:55.862Z,97563.51
2019-01-27T17:42:57.891Z,97570.58
2019-01-27T17:54:04.217Z,97588.38
2019-01-27T17:59:11.688Z,97602.31
2019-01-27T18:04:31.804Z,97607.73
2019-01-27T18:09:59.144Z,97617.45
2019-01-27T18:15:01.305Z,97615.53
2019-01-27T18:20:06.084Z,97630.41
2019-01-27T18:25:09.628Z,97646.24
2019-01-27T18:30:15.514Z,97648.05
2019-01-27T18:35:18.236Z,97659.56
2019-01-27T18:40:20.511Z,97659.30
2019-01-27T18:45:22.732Z,97672.97
2019-01-27T18:50:24.950Z,97673.94
2019-01-27T18:55:38.064Z,97687.21
2019-01-27T19:00:48.165Z,97716.83
2019-01-27T19:06:15.905Z,97729.25
2019-01-27T19:11:27.805Z,97735.75
2019-01-27T19:16:45.219Z,97751.40
2019-01-27T19:22:05.924Z,97768.17
2019-01-27T19:27:25.928Z,97778.38
2019-01-27T19:32:47.935Z,97799.05
2019-01-27T19:38:09.752Z,97815.89
2019-01-27T19:43:40.468Z,97824.59
2019-01-27T19:49:00.965Z,97840.20
2019-01-27T19:54:23.785Z,97855.84
2019-01-27T19:59:44.120Z,97866.30
2019-01-27T20:05:00.097Z,97875.88
2019-01-27T20:10:28.286Z,97880.87
2019-01-27T20:15:51.182Z,97891.36
2019-01-27T20:21:02.713Z,97901.36
2019-01-27T20:26:34.081Z,97915.20
2019-01-27T20:31:58.901Z,97932.03
2019-01-27T20:37:21.160Z,97944.89
2019-01-27T20:42:41.667Z,97959.73
2019-01-27T20:47:58.082Z,97968.63
2019-01-27T20:53:22.944Z,97989.62
2019-01-27T20:58:59.906Z,97997.66
2019-01-27T21:04:08.654Z,97998.99
2019-01-27T21:09:31.526Z,98004.67
2019-01-27T21:14:46.869Z,98022.05
2019-01-27T21:19:52.864Z,98034.16
2019-01-27T21:24:55.064Z,98049.55
2019-01-27T21:29:57.548Z,98048.53
2019-01-27T21:34:59.726Z,98050.88
2019-01-27T21:40:01.994Z,98059.33
2019-01-27T21:45:05.424Z,98063.54
2019-01-27T21:50:10.681Z,98073.50
2019-01-27T21:55:12.876Z,98075.95
2019-01-27T22:00:20.169Z,98079.22
2019-01-27T22:05:22.351Z,98082.03
2019-01-27T22:10:24.555Z,98090.20
2019-01-27T22:15:26.762Z,98094.83
2019-01-27T22:20:29.022Z,98092.17
2019-01-27T22:25:31.186Z,98104.11
2019-01-27T22:30:33.378Z,98112.47
2019-01-27T22:35:35.637Z,98115.09
2019-01-27T22:40:37.875Z,98123.23
2019-01-27T22:45:40.264Z,98136.27
2019-01-27T22:50:42.415Z,98137.38
2019-01-27T22:55:44.799Z,98147.95
2019-01-27T23:01:00.907Z,98152.18
2019-01-27T23:06:03.603Z,98160.17
2019-01-27T23:11:05.808Z,98159.77
2019-01-27T23:16:08.092Z,98171.21
2019-01-27T23:21:10.251Z,98178.05
2019-01-27T23:26:12.379Z,98194.76
2019-01-27T23:31:14.858Z,98186.24
2019-01-27T23:36:17.039Z,98193.66
2019-01-27T23:41:19.280Z,98202.55
2019-01-27T23:52:51.232Z,98201.18
2019-01-27T23:57:53.470Z,98207.54
